Time;durP1;ratioP1;P1;durP2;ratioP2;P2;SDS_P1;SDS_P2;PMS_P1;PMS_P2;Temp;Humidity;BMP_temperature;BMP_pressure;BME280_temperature;BME280_humidity;BME280_pressure;Samples;Min_cycle;Max_cycle;Signal;HPM_P1;HPM_P2
2023/06/30 00:00:15;;;;;;;81.85;52.50;;;18.60;83.90;;;;;;4998565;28;89953;-81
2023/06/30 00:02:42;;;;;;;82.93;52.85;;;18.50;83.80;;;;;;4965054;28;89520;-81
2023/06/30 00:05:08;;;;;;;81.65;52.72;;;18.50;83.70;;;;;;4968626;28;92155;-82
2023/06/30 00:07:34;;;;;;;82.45;52.65;;;18.50;83.70;;;;;;4970429;28;93191;-81
2023/06/30 00:10:00;;;;;;;82.50;53.15;;;18.50;83.70;;;;;;4963729;28;90764;-81
2023/06/30 00:12:25;;;;;;;82.10;53.22;;;18.40;83.80;;;;;;4987138;28;89816;-81
2023/06/30 00:14:51;;;;;;;82.30;52.80;;;18.40;83.50;;;;;;4968498;28;92114;-81
2023/06/30 00:17:16;;;;;;;81.88;53.08;;;18.40;83.80;;;;;;4975336;28;92803;-80
2023/06/30 00:19:42;;;;;;;83.45;53.05;;;18.40;84.20;;;;;;4990875;28;89650;-80
2023/06/30 00:22:08;;;;;;;81.55;52.90;;;18.30;83.30;;;;;;4970132;28;89762;-80
2023/06/30 00:24:34;;;;;;;82.95;53.05;;;18.30;83.90;;;;;;4988384;28;90076;-82
2023/06/30 00:27:00;;;;;;;82.90;53.05;;;18.30;83.90;;;;;;4990837;28;89553;-80
2023/06/30 00:29:25;;;;;;;82.47;52.95;;;18.30;84.70;;;;;;4977903;28;90084;-81
2023/06/30 00:31:51;;;;;;;82.78;52.65;;;18.30;85.00;;;;;;4977213;28;89246;-80
2023/06/30 00:34:17;;;;;;;82.45;52.85;;;18.20;84.50;;;;;;4978636;28;92408;-80
2023/06/30 00:36:42;;;;;;;82.13;53.13;;;18.20;84.90;;;;;;4976117;28;94028;-80
2023/06/30 00:39:08;;;;;;;82.25;52.83;;;18.20;84.00;;;;;;4989405;28;89211;-80
2023/06/30 00:41:33;;;;;;;81.75;53.00;;;18.20;84.10;;;;;;4965762;28;89570;-80
2023/06/30 00:43:59;;;;;;;82.13;52.67;;;18.10;84.20;;;;;;4975164;28;92553;-80
2023/06/30 00:46:25;;;;;;;82.90;52.75;;;18.10;84.10;;;;;;4974647;28;92771;-80
2023/06/30 00:48:51;;;;;;;81.82;53.00;;;18.10;84.00;;;;;;4970346;28;89636;-81
2023/06/30 00:51:17;;;;;;;82.57;52.58;;;18.10;84.30;;;;;;4983682;28;88540;-80
2023/06/30 00:53:43;;;;;;;81.68;52.90;;;18.10;83.90;;;;;;4972537;28;92825;-81
2023/06/30 00:56:09;;;;;;;82.20;52.92;;;18.10;84.40;;;;;;5001194;28;92822;-81
2023/06/30 00:58:35;;;;;;;83.03;52.88;;;18.00;84.50;;;;;;4975223;28;90513;-80
2023/06/30 01:01:09;;;;;;;82.93;52.75;;;18.00;84.40;;;;;;4973383;28;90352;-80
2023/06/30 01:04:08;;;;;;;82.57;53.10;;;18.00;84.80;;;;;;4988448;28;91395;-80
2023/06/30 01:06:42;;;;;;;81.03;52.80;;;18.00;85.60;;;;;;4974402;28;91194;-80
2023/06/30 01:09:15;;;;;;;81.35;52.88;;;18.00;85.00;;;;;;4967512;28;89570;-81
2023/06/30 01:11:42;;;;;;;80.53;52.70;;;17.90;85.70;;;;;;4968571;28;91055;-81
2023/06/30 01:14:09;;;;;;;83.43;52.83;;;17.90;84.90;;;;;;4986193;28;89853;-81
2023/06/30 01:16:35;;;;;;;82.32;52.92;;;17.90;85.10;;;;;;4966585;28;92894;-80
2023/06/30 01:19:06;;;;;;;81.85;53.03;;;17.90;85.10;;;;;;4985747;28;90000;-80
2023/06/30 01:21:32;;;;;;;82.05;53.22;;;17.80;85.10;;;;;;4968560;28;89762;-80
2023/06/30 01:24:09;;;;;;;82.18;52.83;;;17.80;85.40;;;;;;4971273;28;94193;-81
2023/06/30 01:26:35;;;;;;;81.38;52.83;;;17.80;85.50;;;;;;4972016;28;94534;-80
2023/06/30 01:29:03;;;;;;;82.53;52.92;;;17.80;85.20;;;;;;4986950;28;89738;-80
2023/06/30 01:31:31;;;;;;;81.97;53.00;;;17.80;85.50;;;;;;4984842;28;89692;-80
2023/06/30 01:34:01;;;;;;;81.97;52.97;;;17.70;85.70;;;;;;4991002;28;89838;-81
2023/06/30 01:36:26;;;;;;;81.28;53.03;;;17.70;84.60;;;;;;4973020;28;92650;-80
2023/06/30 01:38:52;;;;;;;83.13;53.17;;;17.70;85.00;;;;;;4980652;28;89324;-81
2023/06/30 01:41:20;;;;;;;82.80;53.45;;;17.70;85.80;;;;;;4967370;28;88815;-80
2023/06/30 01:43:46;;;;;;;82.47;53.55;;;17.70;85.40;;;;;;4973771;28;92493;-81
2023/06/30 01:46:12;;;;;;;82.53;53.28;;;17.60;85.20;;;;;;4964971;28;92783;-81
2023/06/30 01:48:38;;;;;;;83.43;53.55;;;17.60;86.10;;;;;;4965738;28;91346;-80
2023/06/30 01:51:05;;;;;;;82.78;53.88;;;17.60;85.50;;;;;;4989569;28;89480;-82
2023/06/30 01:53:31;;;;;;;83.60;54.25;;;17.60;85.90;;;;;;4971296;28;93845;-81
2023/06/30 01:55:58;;;;;;;81.65;53.85;;;17.60;86.00;;;;;;4970726;28;92663;-80
2023/06/30 01:58:24;;;;;;;84.78;54.75;;;17.50;85.40;;;;;;4986123;28;89623;-80
2023/06/30 02:00:49;;;;;;;84.35;54.35;;;17.50;85.90;;;;;;4970709;28;91726;-80
2023/06/30 02:03:15;;;;;;;84.43;54.90;;;17.50;85.40;;;;;;4985274;28;92461;-81
2023/06/30 02:05:40;;;;;;;86.60;55.25;;;17.50;85.70;;;;;;4973428;28;92946;-80
2023/06/30 02:08:06;;;;;;;84.35;54.60;;;17.50;85.40;;;;;;4971639;28;92397;-81
2023/06/30 02:10:32;;;;;;;87.35;55.90;;;17.40;85.10;;;;;;4985611;28;89442;-80
2023/06/30 02:12:58;;;;;;;84.40;55.28;;;17.40;85.50;;;;;;4969688;28;94536;-80
2023/06/30 02:15:23;;;;;;;85.50;55.58;;;17.40;85.30;;;;;;4973705;28;93348;-80
2023/06/30 02:17:49;;;;;;;85.00;54.85;;;17.40;85.60;;;;;;4992279;28;89306;-80
2023/06/30 02:20:14;;;;;;;85.28;55.35;;;17.40;86.00;;;;;;4983662;28;89567;-80
2023/06/30 02:22:40;;;;;;;87.10;55.88;;;17.40;85.40;;;;;;4968537;28;94368;-80
2023/06/30 02:25:06;;;;;;;82.28;54.45;;;17.30;85.50;;;;;;4986645;28;89743;-84
2023/06/30 02:27:31;;;;;;;84.47;55.13;;;17.30;85.30;;;;;;4973663;28;89329;-82
2023/06/30 02:30:03;;;;;;;84.00;55.17;;;17.30;85.50;;;;;;4988156;28;88605;-83
2023/06/30 02:32:29;;;;;;;86.30;54.80;;;17.30;85.50;;;;;;4981902;28;89736;-83
2023/06/30 02:34:54;;;;;;;84.50;55.10;;;17.20;85.60;;;;;;4961846;28;92877;-83
2023/06/30 02:37:20;;;;;;;83.97;54.70;;;17.20;85.60;;;;;;4963485;28;90237;-82
2023/06/30 02:39:45;;;;;;;82.90;54.53;;;17.20;85.90;;;;;;4966107;28;89087;-82
2023/06/30 02:42:11;;;;;;;83.30;54.75;;;17.20;85.80;;;;;;4980336;28;93240;-83
2023/06/30 02:44:36;;;;;;;84.03;54.17;;;17.20;85.90;;;;;;4965035;28;92809;-84
2023/06/30 02:47:03;;;;;;;82.57;54.40;;;17.20;85.80;;;;;;4981607;28;89466;-82
2023/06/30 02:49:28;;;;;;;84.75;54.63;;;17.10;85.70;;;;;;4965796;28;89625;-83
2023/06/30 02:51:54;;;;;;;81.65;53.78;;;17.10;85.20;;;;;;4966926;28;92812;-82
2023/06/30 02:54:19;;;;;;;81.97;53.90;;;17.10;85.20;;;;;;4966591;28;93067;-82
2023/06/30 02:56:45;;;;;;;82.82;54.72;;;17.10;85.20;;;;;;4965800;28;89539;-83
2023/06/30 02:59:11;;;;;;;83.60;54.92;;;17.10;85.60;;;;;;4968613;28;90518;-83
2023/06/30 03:01:36;;;;;;;85.47;54.85;;;17.00;86.70;;;;;;4968183;28;94439;-82
2023/06/30 03:04:03;;;;;;;82.78;54.50;;;17.00;85.80;;;;;;4978956;28;89895;-83
2023/06/30 03:06:29;;;;;;;82.72;54.38;;;17.00;85.50;;;;;;4980566;28;89804;-82
2023/06/30 03:08:55;;;;;;;83.95;55.13;;;17.00;85.70;;;;;;4966945;28;89544;-83
2023/06/30 03:11:21;;;;;;;83.15;54.22;;;17.00;86.20;;;;;;4984919;28;91047;-81
2023/06/30 03:13:46;;;;;;;83.03;54.83;;;17.00;86.20;;;;;;4963384;28;92961;-82
2023/06/30 03:16:12;;;;;;;83.65;54.28;;;16.90;86.10;;;;;;4964786;28;89586;-82
2023/06/30 03:18:39;;;;;;;82.75;54.47;;;16.90;85.80;;;;;;4970486;28;88466;-82
2023/06/30 03:21:05;;;;;;;84.72;54.88;;;16.90;86.40;;;;;;4960230;28;95213;-82
2023/06/30 03:23:30;;;;;;;86.25;54.88;;;16.90;86.60;;;;;;4960891;28;92404;-82
2023/06/30 03:25:56;;;;;;;83.82;55.17;;;16.80;86.50;;;;;;4982343;28;90469;-83
2023/06/30 03:28:22;;;;;;;83.00;54.92;;;16.80;85.90;;;;;;4965313;28;92430;-82
2023/06/30 03:30:47;;;;;;;83.10;54.33;;;16.80;86.10;;;;;;4964638;28;92349;-82
2023/06/30 03:33:13;;;;;;;82.30;53.90;;;16.80;85.70;;;;;;4966990;28;92902;-82
2023/06/30 03:35:39;;;;;;;82.20;54.22;;;16.80;85.50;;;;;;4969440;28;90339;-82
2023/06/30 03:38:04;;;;;;;83.50;54.78;;;16.80;85.80;;;;;;4980958;28;89764;-82
2023/06/30 03:40:30;;;;;;;84.95;54.67;;;16.80;85.80;;;;;;4979477;28;90426;-82
2023/06/30 03:42:55;;;;;;;83.90;54.30;;;16.80;86.40;;;;;;4968312;28;92645;-83
2023/06/30 03:45:21;;;;;;;83.22;55.10;;;16.80;85.90;;;;;;4983008;28;90345;-82
2023/06/30 03:47:47;;;;;;;83.80;54.35;;;16.70;86.30;;;;;;4981107;28;89717;-82
2023/06/30 03:50:13;;;;;;;82.82;54.08;;;16.70;85.60;;;;;;4982334;28;91567;-82
2023/06/30 03:52:38;;;;;;;81.82;53.85;;;16.70;85.80;;;;;;4975254;28;93315;-83
2023/06/30 03:55:04;;;;;;;83.63;54.10;;;16.70;85.70;;;;;;4967660;28;90147;-82
2023/06/30 03:57:30;;;;;;;82.65;53.85;;;16.70;85.70;;;;;;4964911;28;89724;-83
2023/06/30 03:59:56;;;;;;;83.43;54.45;;;16.70;85.50;;;;;;4984312;28;89169;-84
2023/06/30 04:02:21;;;;;;;82.88;53.95;;;16.60;85.90;;;;;;4980460;28;90123;-83
2023/06/30 04:04:47;;;;;;;81.75;54.10;;;16.60;85.80;;;;;;4990265;28;89156;-83
2023/06/30 04:07:13;;;;;;;83.53;54.47;;;16.60;85.40;;;;;;4971235;28;88699;-82
2023/06/30 04:09:38;;;;;;;82.47;54.35;;;16.60;85.50;;;;;;4988676;28;90310;-83
2023/06/30 04:12:04;;;;;;;83.03;53.83;;;16.60;85.30;;;;;;4963240;28;92980;-82
2023/06/30 04:14:30;;;;;;;82.70;54.20;;;16.60;85.20;;;;;;4969690;28;90349;-84
2023/06/30 04:16:55;;;;;;;82.28;53.92;;;16.60;85.40;;;;;;4982116;28;89741;-82
2023/06/30 04:19:21;;;;;;;83.25;54.45;;;16.60;85.70;;;;;;4970926;28;92608;-83
2023/06/30 04:21:47;;;;;;;83.25;54.45;;;16.60;85.90;;;;;;4964653;28;93639;-82
2023/06/30 04:24:13;;;;;;;83.03;54.25;;;16.60;85.60;;;;;;4980480;28;89428;-82
2023/06/30 04:26:38;;;;;;;82.38;54.20;;;16.60;85.90;;;;;;4969163;28;89261;-82
2023/06/30 04:29:04;;;;;;;81.45;54.03;;;16.60;85.60;;;;;;4968353;28;92666;-82
2023/06/30 04:31:29;;;;;;;83.07;54.80;;;16.60;85.60;;;;;;4967301;28;92513;-83
2023/06/30 04:33:55;;;;;;;82.10;53.97;;;16.60;85.10;;;;;;4967612;28;89061;-82
2023/06/30 04:36:21;;;;;;;82.75;54.03;;;16.60;84.80;;;;;;4963129;28;89858;-82
2023/06/30 04:38:48;;;;;;;83.28;54.45;;;16.60;84.70;;;;;;4981155;28;90958;-82
2023/06/30 04:41:14;;;;;;;84.00;54.50;;;16.60;84.60;;;;;;4985896;28;92705;-82
2023/06/30 04:43:40;;;;;;;84.85;54.88;;;16.70;85.40;;;;;;4982609;28;89805;-83
2023/06/30 04:46:06;;;;;;;84.22;54.83;;;16.70;85.60;;;;;;4968486;28;90071;-83
2023/06/30 04:48:33;;;;;;;83.55;54.67;;;16.80;85.00;;;;;;4967063;28;92614;-82
2023/06/30 04:50:59;;;;;;;82.55;54.60;;;16.80;84.60;;;;;;4982364;28;90030;-84
2023/06/30 04:53:25;;;;;;;81.70;54.13;;;16.80;84.30;;;;;;4979797;28;90892;-83
2023/06/30 04:55:51;;;;;;;83.18;54.70;;;16.80;84.70;;;;;;4965152;28;88768;-82
2023/06/30 04:58:18;;;;;;;83.10;54.67;;;16.80;84.80;;;;;;4981602;28;90169;-83
2023/06/30 05:00:44;;;;;;;84.60;54.80;;;16.90;84.70;;;;;;4977784;28;90330;-82
2023/06/30 05:03:10;;;;;;;83.28;54.22;;;16.90;84.50;;;;;;4966505;28;91082;-82
2023/06/30 05:05:35;;;;;;;83.32;54.10;;;17.00;84.10;;;;;;4988566;28;90030;-82
2023/06/30 05:08:01;;;;;;;85.75;54.70;;;17.00;83.70;;;;;;4961632;28;93454;-82
2023/06/30 05:10:26;;;;;;;84.18;54.33;;;17.00;83.80;;;;;;4988016;28;91752;-82
2023/06/30 05:12:52;;;;;;;82.80;54.80;;;17.00;83.20;;;;;;4969346;28;90123;-83
2023/06/30 05:15:18;;;;;;;83.03;54.53;;;17.00;82.70;;;;;;4965261;28;89887;-82
2023/06/30 05:17:43;;;;;;;82.88;54.50;;;17.10;83.10;;;;;;4983781;28;90708;-83
2023/06/30 05:20:09;;;;;;;82.70;54.50;;;17.10;82.80;;;;;;4980211;28;92325;-82
2023/06/30 05:22:35;;;;;;;81.95;54.33;;;17.20;82.50;;;;;;4966784;28;90268;-82
2023/06/30 05:25:02;;;;;;;83.90;54.67;;;17.20;82.20;;;;;;4971730;28;90346;-82
2023/06/30 05:27:27;;;;;;;83.90;55.25;;;17.30;81.80;;;;;;4992997;28;91105;-82
2023/06/30 05:29:53;;;;;;;83.25;54.47;;;17.30;82.00;;;;;;4966073;28;93715;-82
2023/06/30 05:32:19;;;;;;;83.20;54.35;;;17.30;81.40;;;;;;4965676;28;89520;-82
2023/06/30 05:34:46;;;;;;;83.60;54.45;;;17.30;81.30;;;;;;4985341;28;89674;-83
2023/06/30 05:37:12;;;;;;;84.63;54.97;;;17.40;80.70;;;;;;4980437;28;90161;-82
2023/06/30 05:39:38;;;;;;;83.63;54.97;;;17.40;80.80;;;;;;4985401;28;90214;-82
2023/06/30 05:42:04;;;;;;;83.60;54.15;;;17.50;81.00;;;;;;4973160;28;90414;-82
2023/06/30 05:44:30;;;;;;;85.25;55.00;;;17.50;80.70;;;;;;4974495;28;88757;-82
2023/06/30 05:46:55;;;;;;;83.70;55.00;;;17.50;80.60;;;;;;4967331;28;92731;-82
2023/06/30 05:49:21;;;;;;;86.78;54.75;;;17.60;80.50;;;;;;4984034;28;89990;-83
2023/06/30 05:51:48;;;;;;;85.75;55.15;;;17.60;80.30;;;;;;4983226;28;90924;-83
2023/06/30 05:54:13;;;;;;;84.95;55.28;;;17.70;80.30;;;;;;4974350;28;89475;-83
2023/06/30 05:56:39;;;;;;;84.55;54.83;;;17.70;80.50;;;;;;4967181;28;93476;-83
2023/06/30 05:59:09;;;;;;;83.80;54.80;;;17.80;80.40;;;;;;4969777;28;92531;-82
2023/06/30 06:01:38;;;;;;;88.20;55.25;;;17.90;80.80;;;;;;4983371;28;89952;-83
2023/06/30 06:04:10;;;;;;;85.00;55.03;;;18.00;80.10;;;;;;4988121;28;89481;-83
2023/06/30 06:06:37;;;;;;;84.68;54.60;;;18.00;79.60;;;;;;4968616;28;91476;-83
2023/06/30 06:09:03;;;;;;;84.95;54.80;;;18.10;79.30;;;;;;4986754;28;89539;-83
2023/06/30 06:11:29;;;;;;;83.30;53.97;;;18.20;78.60;;;;;;4981401;28;89417;-82
2023/06/30 06:13:54;;;;;;;85.13;54.83;;;18.20;79.20;;;;;;4968809;28;90429;-82
2023/06/30 06:16:20;;;;;;;88.10;55.00;;;18.30;79.50;;;;;;4967110;28;93650;-83
2023/06/30 06:18:47;;;;;;;84.35;54.30;;;18.40;77.50;;;;;;4965962;28;93904;-82
2023/06/30 06:21:13;;;;;;;84.30;54.25;;;18.40;77.40;;;;;;4994937;28;89125;-83
2023/06/30 06:23:39;;;;;;;84.13;54.72;;;18.50;77.40;;;;;;4969748;28;89772;-83
2023/06/30 06:26:04;;;;;;;84.18;54.22;;;18.50;77.50;;;;;;4970099;28;92955;-83
2023/06/30 06:28:30;;;;;;;84.97;54.20;;;18.60;76.60;;;;;;4991283;28;89587;-82
2023/06/30 06:30:56;;;;;;;83.75;53.88;;;18.60;76.50;;;;;;4962606;28;89734;-82
2023/06/30 06:33:21;;;;;;;85.20;54.28;;;18.70;76.40;;;;;;4970522;28;90070;-83
2023/06/30 06:35:51;;;;;;;84.45;53.90;;;18.70;75.90;;;;;;4979713;28;89572;-82
2023/06/30 06:38:17;;;;;;;83.68;54.13;;;18.80;76.10;;;;;;4966786;28;91406;-82
2023/06/30 06:40:44;;;;;;;85.43;54.42;;;18.80;77.10;;;;;;4968798;28;90744;-83
2023/06/30 06:43:10;;;;;;;85.95;54.60;;;18.80;76.80;;;;;;4981000;28;90017;-82
2023/06/30 06:45:35;;;;;;;84.30;54.35;;;18.80;76.60;;;;;;4991155;28;90207;-84
2023/06/30 06:48:16;;;;;;;84.88;54.05;;;18.80;76.30;;;;;;4988346;28;89538;-82
2023/06/30 06:50:42;;;;;;;83.82;54.20;;;18.90;76.50;;;;;;4986971;28;89482;-83
2023/06/30 06:53:08;;;;;;;85.68;53.97;;;18.90;76.40;;;;;;4982471;28;89837;-82
2023/06/30 06:55:34;;;;;;;83.50;53.78;;;18.90;76.20;;;;;;4985552;28;91808;-83
2023/06/30 06:57:59;;;;;;;84.05;54.33;;;18.90;76.40;;;;;;4972822;28;90898;-82
2023/06/30 07:00:25;;;;;;;83.72;54.25;;;18.90;76.50;;;;;;4967492;28;89684;-83
2023/06/30 07:02:52;;;;;;;83.80;53.95;;;18.90;76.40;;;;;;4961217;28;91495;-83
2023/06/30 07:05:17;;;;;;;83.10;54.05;;;19.00;76.50;;;;;;4985640;28;91593;-83
2023/06/30 07:07:43;;;;;;;84.65;53.65;;;18.90;76.30;;;;;;4972973;28;93220;-81
2023/06/30 07:10:09;;;;;;;83.75;53.97;;;19.00;76.10;;;;;;4964270;28;90465;-83
2023/06/30 07:12:35;;;;;;;83.60;53.83;;;19.00;77.10;;;;;;4964754;28;88923;-82
2023/06/30 07:15:00;;;;;;;85.15;54.15;;;19.00;76.40;;;;;;4967454;28;92705;-82
2023/06/30 07:17:26;;;;;;;84.13;53.70;;;19.00;77.30;;;;;;4981930;28;90009;-82
2023/06/30 07:19:51;;;;;;;84.60;53.85;;;19.00;77.40;;;;;;4980412;28;90693;-82
2023/06/30 07:22:17;;;;;;;85.43;53.85;;;19.00;77.30;;;;;;4982087;28;89745;-83
2023/06/30 07:24:42;;;;;;;84.75;53.88;;;19.00;77.60;;;;;;4977848;28;97456;-82
2023/06/30 07:27:08;;;;;;;86.75;53.70;;;19.00;77.80;;;;;;4960976;28;94746;-82
2023/06/30 07:29:33;;;;;;;84.80;53.67;;;19.00;77.50;;;;;;4971395;28;90448;-81
2023/06/30 07:31:59;;;;;;;84.80;53.55;;;19.00;78.20;;;;;;4967776;28;90256;-82
2023/06/30 07:34:25;;;;;;;84.45;53.75;;;19.00;77.80;;;;;;4972662;28;92809;-83
2023/06/30 07:36:51;;;;;;;83.43;53.80;;;19.00;77.20;;;;;;4967942;28;90726;-82
2023/06/30 07:39:17;;;;;;;83.75;53.85;;;19.00;77.30;;;;;;4971025;28;89945;-82
2023/06/30 07:41:42;;;;;;;84.03;53.63;;;19.00;77.40;;;;;;4979894;28;91756;-83
2023/06/30 07:44:11;;;;;;;84.10;53.92;;;19.00;77.50;;;;;;4981910;28;91568;-83
2023/06/30 07:46:38;;;;;;;83.60;53.85;;;19.10;79.00;;;;;;4958750;28;90829;-81
2023/06/30 07:49:04;;;;;;;83.85;53.80;;;19.20;78.50;;;;;;4960464;28;93743;-83
2023/06/30 07:51:30;;;;;;;85.97;54.13;;;19.20;78.20;;;;;;4954509;28;92285;-83
2023/06/30 07:53:56;;;;;;;85.07;54.20;;;19.20;78.80;;;;;;4980071;28;92512;-83
2023/06/30 07:56:22;;;;;;;83.97;54.05;;;19.20;77.20;;;;;;4960580;28;93666;-82
2023/06/30 07:58:48;;;;;;;85.05;54.03;;;19.30;79.00;;;;;;4983686;28;92050;-83
2023/06/30 08:01:14;;;;;;;85.03;54.65;;;19.30;79.00;;;;;;4961439;28;90012;-82
2023/06/30 08:03:39;;;;;;;85.47;54.88;;;19.20;75.90;;;;;;4979934;28;90155;-81
2023/06/30 08:06:05;;;;;;;85.82;54.55;;;19.00;72.90;;;;;;4979159;28;89872;-83
2023/06/30 08:08:31;;;;;;;85.50;53.78;;;19.00;75.80;;;;;;4965819;28;89853;-82
2023/06/30 08:10:57;;;;;;;83.90;53.85;;;19.00;78.30;;;;;;4967198;28;89459;-83
2023/06/30 08:13:23;;;;;;;87.50;55.53;;;19.00;78.80;;;;;;4986274;28;89900;-84
2023/06/30 08:15:49;;;;;;;83.57;54.83;;;18.90;78.40;;;;;;4965819;28;92596;-82
2023/06/30 08:18:15;;;;;;;86.78;54.28;;;18.90;74.10;;;;;;4983515;28;92881;-84
2023/06/30 08:20:40;;;;;;;83.18;54.15;;;18.90;78.10;;;;;;4965262;28;89931;-83
2023/06/30 08:23:06;;;;;;;88.72;55.30;;;19.00;78.90;;;;;;4962412;28;92456;-83
2023/06/30 08:25:31;;;;;;;86.05;54.78;;;19.00;77.30;;;;;;4981989;28;89910;-84
2023/06/30 08:27:57;;;;;;;88.97;54.83;;;19.00;74.30;;;;;;4981205;28;89497;-85
2023/06/30 08:30:23;;;;;;;86.32;55.03;;;19.20;74.60;;;;;;4964173;28;90474;-83
2023/06/30 08:32:49;;;;;;;90.05;55.45;;;19.40;75.50;;;;;;4969378;28;92904;-85
2023/06/30 08:35:15;;;;;;;87.05;55.33;;;19.60;71.60;;;;;;4968683;28;91994;-85
2023/06/30 08:37:41;;;;;;;90.05;55.30;;;19.80;70.20;;;;;;4963686;28;90269;-85
2023/06/30 08:40:07;;;;;;;90.05;55.40;;;19.80;69.40;;;;;;4967776;28;89855;-84
2023/06/30 08:42:36;;;;;;;88.53;55.45;;;20.00;72.30;;;;;;4966794;28;93859;-82
2023/06/30 08:45:03;;;;;;;91.68;55.72;;;20.20;70.00;;;;;;4967698;28;93600;-82
2023/06/30 08:47:32;;;;;;;89.03;55.67;;;20.30;68.30;;;;;;4973816;28;89566;-82
2023/06/30 08:49:58;;;;;;;88.22;55.42;;;20.30;69.00;;;;;;4964894;28;89329;-84
2023/06/30 08:52:25;;;;;;;88.28;54.80;;;20.30;67.40;;;;;;4969787;28;93566;-83
2023/06/30 08:54:51;;;;;;;88.43;54.72;;;20.40;68.30;;;;;;4971080;28;93822;-82
2023/06/30 08:57:17;;;;;;;88.28;55.50;;;20.60;69.70;;;;;;4972361;28;90003;-82
2023/06/30 08:59:44;;;;;;;88.93;55.17;;;20.70;67.30;;;;;;4971310;28;88507;-83
2023/06/30 09:02:12;;;;;;;89.40;55.03;;;20.70;66.80;;;;;;4989193;28;93127;-82
2023/06/30 09:04:39;;;;;;;88.13;54.92;;;20.40;65.90;;;;;;4970353;28;91737;-82
2023/06/30 09:07:08;;;;;;;90.60;55.25;;;20.30;65.70;;;;;;4987873;28;90323;-82
2023/06/30 09:09:45;;;;;;;88.30;54.45;;;20.30;67.90;;;;;;4991452;28;90404;-82
2023/06/30 09:12:12;;;;;;;89.32;54.40;;;20.30;70.10;;;;;;5004005;28;89289;-82
2023/06/30 09:14:40;;;;;;;83.95;54.28;;;20.20;68.80;;;;;;4970970;28;92482;-82
2023/06/30 09:17:06;;;;;;;84.63;54.25;;;20.00;67.90;;;;;;4973378;28;91989;-83
2023/06/30 09:19:32;;;;;;;85.68;53.95;;;19.90;68.70;;;;;;4974058;28;93945;-83
2023/06/30 09:21:57;;;;;;;85.10;54.17;;;19.90;69.20;;;;;;4983314;28;90718;-83
2023/06/30 09:24:23;;;;;;;88.78;54.25;;;20.00;71.20;;;;;;4975453;28;91733;-83
2023/06/30 09:26:52;;;;;;;83.53;53.45;;;20.00;69.20;;;;;;4969532;28;89858;-83
2023/06/30 09:29:21;;;;;;;85.70;54.05;;;20.00;69.70;;;;;;4966773;28;89906;-82
2023/06/30 09:31:51;;;;;;;88.75;54.15;;;20.00;69.80;;;;;;4962450;28;93716;-81
2023/06/30 09:34:19;;;;;;;88.97;54.10;;;20.20;70.00;;;;;;4970388;28;93737;-81
2023/06/30 09:36:54;;;;;;;87.88;53.85;;;20.30;69.80;;;;;;4976533;28;89489;-83
2023/06/30 09:39:20;;;;;;;88.53;54.03;;;20.50;70.00;;;;;;4981300;28;89767;-81
2023/06/30 09:41:47;;;;;;;85.25;54.05;;;20.50;65.90;;;;;;4967704;28;94693;-82
2023/06/30 09:44:15;;;;;;;85.47;53.75;;;20.60;62.00;;;;;;4992930;28;89270;-82
2023/06/30 09:46:51;;;;;;;94.35;53.97;;;20.80;65.80;;;;;;4985501;28;90503;-81
2023/06/30 09:49:32;;;;;;;85.90;53.88;;;20.80;64.30;;;;;;4985062;28;92854;-81
2023/06/30 09:52:01;;;;;;;86.30;53.95;;;21.00;63.80;;;;;;4983829;28;92202;-81
2023/06/30 09:54:27;;;;;;;89.03;54.17;;;21.10;64.30;;;;;;4965075;28;92079;-81
2023/06/30 09:57:05;;;;;;;88.00;54.15;;;21.20;63.00;;;;;;4962765;28;91435;-81
2023/06/30 09:59:31;;;;;;;86.07;53.83;;;21.20;62.50;;;;;;4981111;28;90753;-79
2023/06/30 10:01:58;;;;;;;85.97;54.45;;;21.20;59.90;;;;;;4967455;28;92639;-79
2023/06/30 10:04:25;;;;;;;89.25;54.13;;;21.20;59.20;;;;;;4970025;28;93942;-84
2023/06/30 10:06:52;;;;;;;87.55;54.15;;;21.20;62.90;;;;;;4992345;28;90470;-83
2023/06/30 10:09:22;;;;;;;86.28;53.72;;;21.30;62.50;;;;;;4965925;28;89532;-82
2023/06/30 10:11:52;;;;;;;89.25;53.70;;;21.40;61.50;;;;;;4986419;28;90595;-81
2023/06/30 10:14:21;;;;;;;85.38;53.92;;;21.40;63.30;;;;;;4965471;28;92745;-80
2023/06/30 10:16:47;;;;;;;85.07;53.60;;;21.40;60.90;;;;;;4995438;28;90064;-82
2023/06/30 10:19:14;;;;;;;86.35;54.05;;;21.40;60.90;;;;;;5009375;28;88835;-83
2023/06/30 10:21:40;;;;;;;85.25;53.97;;;21.40;62.50;;;;;;4998184;28;93338;-84
2023/06/30 10:24:09;;;;;;;89.50;53.97;;;21.50;63.00;;;;;;4988118;28;93187;-83
2023/06/30 10:26:36;;;;;;;90.65;54.53;;;21.60;63.50;;;;;;4971985;28;89564;-84
2023/06/30 10:29:03;;;;;;;87.50;54.10;;;21.60;65.50;;;;;;4979175;28;89450;-83
2023/06/30 10:31:30;;;;;;;86.03;54.35;;;21.70;60.80;;;;;;4964742;28;95069;-82
2023/06/30 10:33:55;;;;;;;87.00;54.08;;;21.80;63.50;;;;;;4965338;28;93095;-81
2023/06/30 10:36:22;;;;;;;87.32;53.78;;;21.80;63.10;;;;;;4965883;28;89172;-81
2023/06/30 10:38:48;;;;;;;89.80;54.42;;;21.80;62.80;;;;;;4967474;28;90967;-80
2023/06/30 10:41:16;;;;;;;84.45;53.75;;;21.80;61.70;;;;;;4971386;28;93693;-81
2023/06/30 10:44:14;;;;;;;89.18;54.15;;;21.80;61.20;;;;;;4988906;28;90094;-80
2023/06/30 10:46:50;;;;;;;85.95;53.63;;;21.80;63.00;;;;;;4944196;28;90913;-80
2023/06/30 10:49:27;;;;;;;85.00;53.80;;;21.80;62.80;;;;;;4993958;28;89520;-80
2023/06/30 10:51:54;;;;;;;86.13;53.95;;;21.80;58.30;;;;;;4963866;28;93614;-80
2023/06/30 10:54:24;;;;;;;85.97;53.85;;;21.80;60.70;;;;;;4967634;28;92287;-81
2023/06/30 10:56:51;;;;;;;86.22;54.03;;;21.90;61.60;;;;;;4989092;28;90432;-80
2023/06/30 10:59:23;;;;;;;86.28;53.90;;;21.90;60.10;;;;;;4972979;28;89781;-80
2023/06/30 11:02:11;;;;;;;86.05;53.80;;;21.90;60.40;;;;;;4986348;28;90215;-80
2023/06/30 11:04:38;;;;;;;86.45;54.22;;;21.90;59.50;;;;;;4967831;28;93512;-81
2023/06/30 11:07:05;;;;;;;85.38;53.85;;;22.00;60.30;;;;;;4979886;28;89226;-81
2023/06/30 11:09:49;;;;;;;86.32;53.72;;;21.90;59.70;;;;;;4990152;28;89429;-82
2023/06/30 11:12:19;;;;;;;84.78;53.70;;;21.90;59.90;;;;;;4979298;28;90547;-81
2023/06/30 11:15:03;;;;;;;85.93;53.90;;;21.80;59.40;;;;;;4963124;28;93933;-81
2023/06/30 11:17:51;;;;;;;84.78;53.60;;;21.60;59.30;;;;;;4992737;28;89798;-82
2023/06/30 11:20:17;;;;;;;85.40;53.53;;;21.60;60.00;;;;;;4990160;28;89750;-81
2023/06/30 11:22:56;;;;;;;85.53;53.58;;;21.60;60.10;;;;;;4970224;28;93095;-81
2023/06/30 11:25:22;;;;;;;86.50;53.85;;;21.70;61.00;;;;;;4985296;28;89540;-81
2023/06/30 11:27:47;;;;;;;85.07;53.97;;;21.80;60.20;;;;;;4985064;28;90476;-81
2023/06/30 11:30:18;;;;;;;87.78;54.00;;;21.70;60.70;;;;;;4963997;28;89056;-80
2023/06/30 11:32:47;;;;;;;85.75;53.78;;;21.70;61.70;;;;;;4983199;28;89910;-79
2023/06/30 11:35:16;;;;;;;89.00;53.95;;;21.80;62.90;;;;;;4992292;28;91228;-80
2023/06/30 11:37:50;;;;;;;88.60;53.75;;;21.90;61.80;;;;;;4972505;28;90383;-80
2023/06/30 11:40:16;;;;;;;87.53;54.30;;;22.10;62.30;;;;;;4970611;28;89960;-81
2023/06/30 11:42:42;;;;;;;89.70;54.22;;;22.20;62.90;;;;;;4984785;28;89777;-80
2023/06/30 11:45:08;;;;;;;88.53;54.15;;;22.30;62.00;;;;;;4987689;28;91332;-81
2023/06/30 11:47:35;;;;;;;88.53;53.97;;;22.30;62.70;;;;;;4983659;28;89383;-81
2023/06/30 11:50:11;;;;;;;88.10;54.10;;;22.30;65.30;;;;;;4982217;28;91027;-82
2023/06/30 11:52:39;;;;;;;86.93;54.45;;;22.30;64.30;;;;;;4986803;28;91420;-81
2023/06/30 11:55:08;;;;;;;86.43;54.20;;;22.30;65.30;;;;;;4970510;28;92805;-81
2023/06/30 11:57:36;;;;;;;86.95;54.40;;;22.40;61.80;;;;;;4969366;28;89340;-83
2023/06/30 12:00:08;;;;;;;86.93;54.33;;;22.40;62.10;;;;;;4991641;28;89675;-82
2023/06/30 12:02:33;;;;;;;88.07;54.17;;;22.50;60.30;;;;;;4966343;28;94840;-83
2023/06/30 12:04:59;;;;;;;86.78;54.22;;;22.50;60.10;;;;;;4994538;28;89769;-83
2023/06/30 12:07:24;;;;;;;86.57;54.10;;;22.60;59.20;;;;;;4985790;28;89505;-82
2023/06/30 12:10:01;;;;;;;85.85;53.95;;;22.60;58.70;;;;;;4966577;28;90030;-82
2023/06/30 12:12:27;;;;;;;87.32;54.00;;;22.60;59.10;;;;;;4970288;28;92766;-86
2023/06/30 12:14:54;;;;;;;88.45;54.53;;;22.60;59.20;;;;;;4988326;28;93505;-83
2023/06/30 12:17:20;;;;;;;87.90;54.55;;;22.60;63.90;;;;;;4984718;28;90000;-83
2023/06/30 12:19:45;;;;;;;87.75;54.50;;;22.60;65.50;;;;;;4966643;28;89940;-83
2023/06/30 12:22:12;;;;;;;88.72;54.50;;;22.60;65.40;;;;;;4963948;28;92861;-82
2023/06/30 12:24:42;;;;;;;87.55;54.15;;;22.70;65.90;;;;;;4964502;28;93101;-84
2023/06/30 12:27:08;;;;;;;88.57;54.80;;;22.70;66.70;;;;;;4983882;28;90238;-84